Airfield :







YOU CAN JOIN US ON...

 
LOGIN :

Register | Disclaimer

   EN    FR    IT 

 









Legend :    VFR   Marginal VFR   IFR   Intensive IFR   Very Intensive IFR
Visi :
Ceiling :
>= 8 km
>= 3000ft
5 to 8 km
1000 to 3000 ft
1500m to 5 km
500 to 1000 ft
800 to 1500m
200 to 500 ft
< 800m
< 200 ft
Symbols :   Thunderstorms  Fog  Heavy snow  Heavy precipitations  Wind > 20 kt






- Airport Elevation : 73 ft
- IATA code : DOM


TDPD - Melville Hall

CURRENT METAR :
  • 271100Z 29005KT 9999 BKN018 23/21 Q1016

EXPIRED METARs :
  • 271000Z 09002KT 9999 SCT019 24/20 Q1015

TAF TAF TDPD
Valid from the 27 at 12:00 until the 28 at 12:00 UTC


271100Z 2712/2812 10010KT 9999 SCT018
TEMPO 2808/2812 5000 SHRA BKN014



MET'MAP, your aeronautical weather chart ! - Copyright ORBIFLY December 2007 - Disclaimer

ORBIFLY MET'MAP TEAM :

Programming & Development : Alexandra Zaïnal
Concept & original design : Baudouin d'Aumeries
Assistance for programming : Marc-Olivier Méhu
Technical & hardware support : Manuel Goepfert

Contact : metmap@orbifly.com




SOURCES & CREDITS :

   NOAA